createdAt,value
2022-10-21T00:00:18.214Z,116.07
2022-10-21T00:02:45.412Z,114.45
2022-10-21T00:05:12.286Z,116.38
2022-10-21T00:07:38.958Z,111.45
2022-10-21T00:10:06.571Z,114.00
2022-10-21T00:12:34.119Z,112.57
2022-10-21T00:15:00.762Z,110.43
2022-10-21T00:17:27.445Z,113.90
2022-10-21T00:19:54.061Z,108.80
2022-10-21T00:22:20.733Z,116.88
2022-10-21T00:24:47.478Z,113.97
2022-10-21T00:27:14.165Z,114.70
2022-10-21T00:29:40.808Z,116.90
2022-10-21T00:32:07.511Z,112.32
2022-10-21T00:34:34.221Z,110.28
2022-10-21T00:37:01.015Z,112.57
2022-10-21T00:39:27.691Z,113.43
2022-10-21T00:41:54.413Z,116.47
2022-10-21T00:44:21.160Z,115.40
2022-10-21T00:46:53.569Z,111.40
2022-10-21T00:49:43.618Z,112.57
2022-10-21T00:52:18.637Z,113.38
2022-10-21T00:54:48.824Z,110.95
2022-10-21T00:57:17.336Z,109.55
2022-10-21T00:59:48.946Z,114.68
2022-10-21T01:02:15.797Z,113.22
2022-10-21T01:04:43.678Z,111.82
2022-10-21T01:07:11.664Z,111.60
2022-10-21T01:09:38.327Z,107.93
2022-10-21T01:12:15.114Z,112.68
2022-10-21T01:14:54.254Z,106.53
2022-10-21T01:17:46.073Z,107.05
2022-10-21T01:20:37.948Z,109.05
2022-10-21T01:23:32.217Z,119.93
2022-10-21T01:26:41.599Z,117.20
2022-10-21T01:29:33.310Z,107.85
2022-10-21T01:32:27.637Z,111.97
2022-10-21T01:35:02.996Z,112.10
2022-10-21T01:37:37.521Z,117.18
2022-10-21T01:40:14.307Z,113.85
2022-10-21T01:42:49.751Z,112.75
2022-10-21T01:45:33.561Z,113.22
2022-10-21T01:48:08.192Z,119.50
2022-10-21T01:50:39.486Z,112.63
2022-10-21T01:53:10.516Z,115.65
2022-10-21T01:55:39.373Z,120.78
2022-10-21T01:58:14.703Z,115.18
2022-10-21T02:00:42.579Z,117.63
2022-10-21T02:03:13.591Z,111.53
2022-10-21T02:05:40.614Z,110.85
2022-10-21T02:08:08.072Z,116.78
2022-10-21T02:10:43.114Z,115.88
2022-10-21T02:13:13.654Z,115.25
2022-10-21T02:15:41.972Z,115.57
2022-10-21T02:18:17.786Z,128.13
2022-10-21T02:20:45.098Z,109.38
2022-10-21T02:23:19.074Z,111.20
2022-10-21T02:25:50.417Z,117.57
2022-10-21T02:28:18.843Z,117.68
2022-10-21T02:31:24.096Z,112.22
2022-10-21T02:33:56.068Z,131.15
2022-10-21T02:36:46.207Z,120.30
2022-10-21T02:39:34.651Z,117.78
2022-10-21T02:42:04.166Z,116.68
2022-10-21T02:44:31.132Z,110.05
2022-10-21T02:46:57.988Z,111.30
2022-10-21T02:49:24.818Z,111.20
2022-10-21T02:51:51.455Z,110.53
2022-10-21T02:54:18.143Z,109.28
2022-10-21T02:56:44.771Z,107.10
2022-10-21T02:59:11.655Z,110.40
2022-10-21T03:01:38.320Z,107.50
2022-10-21T03:04:05.134Z,105.00
2022-10-21T03:06:31.765Z,110.93
2022-10-21T03:08:58.447Z,108.05
2022-10-21T03:11:25.133Z,108.50
2022-10-21T03:13:51.771Z,108.35
2022-10-21T03:18:49.934Z,106.72
2022-10-21T03:21:16.560Z,109.07
2022-10-21T03:23:43.237Z,108.40
2022-10-21T03:26:09.875Z,114.78
2022-10-21T03:28:36.509Z,110.22
2022-10-21T03:31:03.229Z,109.97
2022-10-21T03:33:29.870Z,113.72
2022-10-21T03:35:56.505Z,113.60
2022-10-21T03:38:23.303Z,112.45
2022-10-21T03:40:51.192Z,112.70
2022-10-21T03:43:17.922Z,110.13
2022-10-21T03:45:44.572Z,107.63
2022-10-21T03:48:11.241Z,114.07
2022-10-21T03:50:37.866Z,113.85
2022-10-21T03:53:13.739Z,113.88
2022-10-21T03:55:55.690Z,114.20
2022-10-21T03:58:25.184Z,112.95
2022-10-21T04:00:53.160Z,115.15
2022-10-21T04:03:20.240Z,107.28
2022-10-21T04:05:46.880Z,111.95
2022-10-21T04:08:13.517Z,114.68
2022-10-21T04:10:40.159Z,107.10
2022-10-21T04:13:06.811Z,107.30
2022-10-21T04:15:33.492Z,108.68
2022-10-21T04:18:00.172Z,109.35
2022-10-21T04:20:26.823Z,111.93
2022-10-21T04:22:53.507Z,118.13
2022-10-21T04:25:20.106Z,111.85
2022-10-21T04:27:46.726Z,110.22
2022-10-21T04:30:13.367Z,112.25
2022-10-21T04:32:40.529Z,107.38
2022-10-21T04:35:07.401Z,107.30
2022-10-21T04:37:34.415Z,109.22
2022-10-21T04:40:01.069Z,108.88
2022-10-21T04:44:59.327Z,111.70
2022-10-21T04:47:26.022Z,108.50
2022-10-21T04:49:52.764Z,108.43
2022-10-21T04:52:19.395Z,109.88
2022-10-21T04:54:46.030Z,106.63
2022-10-21T04:57:13.682Z,110.43
2022-10-21T04:59:40.414Z,115.57
2022-10-21T05:02:07.081Z,125.70
2022-10-21T05:04:33.726Z,107.40
2022-10-21T05:07:00.351Z,107.43
2022-10-21T05:09:27.023Z,111.32
2022-10-21T05:11:53.740Z,108.28
2022-10-21T05:14:22.649Z,104.03
2022-10-21T05:16:49.787Z,107.18
2022-10-21T05:19:16.454Z,106.13
2022-10-21T05:21:43.220Z,106.43
2022-10-21T05:24:10.176Z,105.93
2022-10-21T05:26:36.811Z,105.68
2022-10-21T05:29:03.478Z,109.28
2022-10-21T05:31:30.107Z,110.97
2022-10-21T05:33:57.175Z,116.63
2022-10-21T05:36:24.248Z,106.72
2022-10-21T05:38:51.229Z,106.68
2022-10-21T05:41:18.146Z,108.63
2022-10-21T05:43:44.837Z,107.25
2022-10-21T05:46:11.562Z,106.78
2022-10-21T05:48:38.275Z,105.60
2022-10-21T05:51:06.042Z,105.63
2022-10-21T05:53:32.675Z,110.00
2022-10-21T05:56:04.925Z,111.28
2022-10-21T05:58:32.875Z,104.15
2022-10-21T06:01:00.536Z,108.82
2022-10-21T06:03:32.630Z,107.20
2022-10-21T06:06:00.647Z,108.55
2022-10-21T06:08:29.016Z,107.07
2022-10-21T06:11:07.423Z,108.45
2022-10-21T06:13:34.594Z,106.70
2022-10-21T06:16:01.609Z,109.18
2022-10-21T06:18:28.505Z,111.05
2022-10-21T06:20:55.150Z,110.03
2022-10-21T06:23:22.018Z,108.57
2022-10-21T06:26:03.586Z,110.03
2022-10-21T06:28:33.894Z,107.95
2022-10-21T06:31:00.731Z,111.07
2022-10-21T06:33:27.641Z,114.40
2022-10-21T06:35:55.052Z,110.88
2022-10-21T06:38:22.202Z,110.13
2022-10-21T06:40:48.898Z,113.55
2022-10-21T06:43:16.160Z,108.15
2022-10-21T06:45:43.131Z,107.70
2022-10-21T06:48:10.264Z,107.93
2022-10-21T06:50:37.974Z,111.20
2022-10-21T06:53:04.715Z,104.22
2022-10-21T06:55:31.872Z,106.60
2022-10-21T06:57:59.679Z,107.40
2022-10-21T07:00:26.555Z,109.47
2022-10-21T07:02:53.318Z,112.53
2022-10-21T07:05:19.979Z,108.97
2022-10-21T07:07:46.607Z,105.78
2022-10-21T07:10:13.321Z,106.70
2022-10-21T07:12:39.935Z,108.47
2022-10-21T07:15:07.035Z,112.03
2022-10-21T07:17:33.653Z,108.80
2022-10-21T07:20:00.560Z,109.65
2022-10-21T07:22:27.232Z,108.32
2022-10-21T07:24:53.920Z,108.30
2022-10-21T07:27:20.618Z,108.80
2022-10-21T07:29:47.383Z,111.97
2022-10-21T07:32:13.993Z,107.38
2022-10-21T07:34:40.717Z,108.30
2022-10-21T07:37:07.419Z,121.40
2022-10-21T07:39:35.077Z,110.57
2022-10-21T07:42:01.813Z,108.90
2022-10-21T07:44:28.516Z,112.70
2022-10-21T07:46:55.379Z,114.57
2022-10-21T07:49:23.340Z,109.63
2022-10-21T07:51:50.442Z,112.90
2022-10-21T07:54:18.693Z,111.13
2022-10-21T07:56:48.402Z,109.60
2022-10-21T07:59:16.525Z,115.10
2022-10-21T08:01:50.954Z,107.82
2022-10-21T08:04:19.806Z,115.93
2022-10-21T08:06:47.694Z,113.75
2022-10-21T08:09:15.572Z,108.22
2022-10-21T08:11:42.640Z,108.10
2022-10-21T08:14:10.534Z,109.22
2022-10-21T08:16:37.584Z,109.40
2022-10-21T08:19:06.395Z,115.80
2022-10-21T08:21:33.504Z,111.82
2022-10-21T08:24:03.363Z,115.82
2022-10-21T08:26:30.437Z,116.35
2022-10-21T08:31:23.786Z,109.03
2022-10-21T08:33:50.663Z,113.07
2022-10-21T08:36:24.830Z,107.10
2022-10-21T08:38:52.582Z,108.63
2022-10-21T08:41:31.072Z,118.93
2022-10-21T08:44:03.837Z,115.05
2022-10-21T08:46:35.597Z,112.93
2022-10-21T08:49:17.619Z,110.35
2022-10-21T08:51:53.524Z,108.90
2022-10-21T08:54:28.002Z,108.32
2022-10-21T08:56:59.048Z,108.65
2022-10-21T08:59:27.035Z,106.35
2022-10-21T09:02:33.207Z,111.97
2022-10-21T09:05:18.739Z,110.60
2022-10-21T09:08:16.609Z,105.72
2022-10-21T09:11:10.506Z,106.00
2022-10-21T09:14:04.395Z,110.80
2022-10-21T09:16:48.072Z,101.43
2022-10-21T09:19:32.385Z,110.78
2022-10-21T09:22:33.724Z,107.80
2022-10-21T09:25:03.238Z,107.40
2022-10-21T09:27:51.381Z,107.60
2022-10-21T09:30:21.938Z,109.85
2022-10-21T09:32:50.891Z,105.90
2022-10-21T09:35:24.399Z,105.07
2022-10-21T09:38:00.738Z,105.53
2022-10-21T09:40:30.615Z,100.90
2022-10-21T09:42:59.562Z,100.72
2022-10-21T09:45:38.908Z,99.63
2022-10-21T09:48:17.521Z,105.15
2022-10-21T09:51:06.426Z,105.05
2022-10-21T09:53:54.004Z,112.07
2022-10-21T09:56:49.968Z,103.90
2022-10-21T09:59:19.484Z,100.72
2022-10-21T10:01:47.707Z,104.75
2022-10-21T10:04:29.197Z,105.25
2022-10-21T10:06:56.391Z,106.70
2022-10-21T10:09:31.158Z,103.93
2022-10-21T10:12:04.930Z,102.00
2022-10-21T10:14:35.998Z,103.55
2022-10-21T10:17:30.744Z,100.63
2022-10-21T10:20:12.887Z,99.72
2022-10-21T10:22:44.999Z,101.35
2022-10-21T10:25:22.796Z,98.97
2022-10-21T10:27:51.125Z,100.40
2022-10-21T10:30:18.525Z,97.03
2022-10-21T10:32:46.664Z,98.15
2022-10-21T10:35:33.931Z,97.43
2022-10-21T10:38:04.788Z,98.47
2022-10-21T10:40:39.455Z,94.78
2022-10-21T10:43:20.395Z,95.30
2022-10-21T10:45:53.470Z,93.80
2022-10-21T10:48:26.866Z,96.85
2022-10-21T10:50:53.720Z,95.30
2022-10-21T10:53:29.121Z,94.50
2022-10-21T10:56:16.046Z,96.93
2022-10-21T10:59:02.673Z,97.00
2022-10-21T11:01:37.820Z,92.97
2022-10-21T11:04:32.196Z,94.85
2022-10-21T11:07:25.191Z,94.60
2022-10-21T11:09:56.773Z,93.75
2022-10-21T11:12:26.483Z,94.68
2022-10-21T11:14:58.585Z,94.78
2022-10-21T11:17:37.572Z,94.25
2022-10-21T11:20:38.339Z,99.22
2022-10-21T11:23:57.844Z,94.78
2022-10-21T11:26:36.958Z,96.57
2022-10-21T11:29:41.206Z,95.13
2022-10-21T11:32:23.774Z,99.68
2022-10-21T11:34:56.654Z,95.18
2022-10-21T11:37:52.829Z,97.75
2022-10-21T11:40:40.509Z,94.22
2022-10-21T11:43:28.648Z,95.60
2022-10-21T11:45:58.097Z,92.57
2022-10-21T11:48:41.696Z,92.97
2022-10-21T11:51:46.613Z,95.18
2022-10-21T11:54:44.564Z,93.05
2022-10-21T11:57:40.327Z,90.72
2022-10-21T12:00:15.755Z,89.07
2022-10-21T12:02:54.314Z,88.10
2022-10-21T12:05:34.218Z,90.85
2022-10-21T12:08:21.722Z,89.40
2022-10-21T12:11:10.161Z,87.95
2022-10-21T12:13:41.460Z,86.07
2022-10-21T12:16:12.968Z,96.45
2022-10-21T12:18:53.344Z,87.13
2022-10-21T12:21:33.461Z,87.85
2022-10-21T12:24:38.858Z,89.13
2022-10-21T12:27:14.714Z,87.82
2022-10-21T12:29:49.975Z,86.88
2022-10-21T12:32:29.454Z,88.75
2022-10-21T12:34:56.526Z,88.68
2022-10-21T12:37:48.267Z,88.07
2022-10-21T12:40:37.374Z,88.90
2022-10-21T12:43:14.818Z,88.97
2022-10-21T12:45:42.047Z,89.78
2022-10-21T12:48:37.160Z,90.70
2022-10-21T12:51:16.460Z,88.68
2022-10-21T12:56:57.270Z,90.00
2022-10-21T12:59:39.571Z,88.10
2022-10-21T13:02:06.159Z,88.88
2022-10-21T13:04:32.720Z,89.28
2022-10-21T13:07:15.732Z,88.88
2022-10-21T13:09:51.710Z,89.18
2022-10-21T13:12:24.449Z,90.35
2022-10-21T13:14:51.066Z,89.97
2022-10-21T13:17:23.531Z,88.28
2022-10-21T13:19:51.207Z,92.00
2022-10-21T13:22:34.448Z,87.55
2022-10-21T13:25:16.494Z,88.68
2022-10-21T13:27:48.429Z,88.13
2022-10-21T13:30:38.698Z,89.50
2022-10-21T13:33:14.427Z,89.88
2022-10-21T13:35:47.140Z,88.32
2022-10-21T13:38:36.256Z,88.32
2022-10-21T13:41:19.816Z,90.25
2022-10-21T13:43:51.164Z,91.32
2022-10-21T13:46:31.401Z,91.43
2022-10-21T13:49:01.284Z,89.32
2022-10-21T13:51:29.672Z,89.90
2022-10-21T13:54:06.697Z,92.47
2022-10-21T13:56:35.805Z,89.72
2022-10-21T13:59:03.142Z,88.93
2022-10-21T14:01:45.156Z,92.75
2022-10-21T14:04:15.285Z,89.95
2022-10-21T14:06:53.982Z,89.90
2022-10-21T14:09:49.075Z,89.03
2022-10-21T14:12:33.570Z,88.50
2022-10-21T14:15:21.815Z,88.18
2022-10-21T14:17:52.131Z,90.13
2022-10-21T14:20:34.636Z,91.30
2022-10-21T14:23:03.718Z,92.63
2022-10-21T14:25:31.521Z,88.32
2022-10-21T14:28:00.105Z,89.53
2022-10-21T14:30:31.688Z,93.40
2022-10-21T14:33:00.739Z,89.55
2022-10-21T14:35:30.212Z,89.47
2022-10-21T14:37:59.430Z,90.28
2022-10-21T14:40:37.056Z,90.65
2022-10-21T14:43:20.233Z,89.13
2022-10-21T14:45:49.304Z,89.05
2022-10-21T14:48:27.853Z,91.13
2022-10-21T14:51:01.192Z,97.53
2022-10-21T14:53:35.362Z,88.47
2022-10-21T14:56:05.033Z,89.95
2022-10-21T14:58:37.592Z,92.53
2022-10-21T15:01:13.757Z,88.75
2022-10-21T15:03:55.450Z,89.80
2022-10-21T15:06:36.531Z,90.82
2022-10-21T15:09:15.651Z,90.82
2022-10-21T15:11:44.347Z,95.38
2022-10-21T15:14:14.067Z,91.57
2022-10-21T15:16:58.034Z,95.10
2022-10-21T15:19:28.261Z,91.97
2022-10-21T15:22:01.456Z,90.57
2022-10-21T15:24:42.663Z,93.00
2022-10-21T15:27:28.024Z,94.20
2022-10-21T15:29:54.836Z,97.18
2022-10-21T15:32:25.581Z,91.13
2022-10-21T15:34:56.251Z,91.88
2022-10-21T15:37:22.952Z,94.22
2022-10-21T15:39:49.866Z,91.03
2022-10-21T15:42:19.070Z,93.65
2022-10-21T15:44:49.039Z,92.95
2022-10-21T15:47:15.928Z,98.85
2022-10-21T15:49:43.121Z,92.75
2022-10-21T15:52:10.091Z,93.55
2022-10-21T15:54:36.998Z,91.50
2022-10-21T15:57:17.250Z,94.93
2022-10-21T15:59:44.184Z,90.57
2022-10-21T16:02:16.402Z,100.00
2022-10-21T16:04:44.223Z,92.88
2022-10-21T16:07:34.108Z,90.88
2022-10-21T16:10:01.758Z,91.72
2022-10-21T16:12:28.383Z,93.53
2022-10-21T16:14:55.356Z,92.78
2022-10-21T16:17:24.184Z,92.75
2022-10-21T16:19:50.842Z,93.20
2022-10-21T16:22:21.148Z,97.20
2022-10-21T16:24:48.099Z,93.28
2022-10-21T16:27:26.389Z,96.97
2022-10-21T16:30:09.343Z,95.20
2022-10-21T16:32:35.970Z,96.50
2022-10-21T16:35:02.642Z,91.40
2022-10-21T16:37:29.279Z,95.47
2022-10-21T16:39:55.923Z,95.93
2022-10-21T16:42:22.709Z,100.18
2022-10-21T16:44:50.508Z,92.97
2022-10-21T16:47:20.142Z,99.65
2022-10-21T16:49:48.018Z,93.32
2022-10-21T16:52:15.779Z,94.80
2022-10-21T16:54:43.427Z,93.18
2022-10-21T16:57:11.994Z,95.55
2022-10-21T16:59:38.595Z,92.70
2022-10-21T17:02:15.643Z,92.43
2022-10-21T17:04:43.074Z,99.53
2022-10-21T17:07:10.625Z,91.78
2022-10-21T17:09:37.477Z,96.32
2022-10-21T17:12:04.593Z,97.10
2022-10-21T17:14:31.532Z,93.97
2022-10-21T17:16:58.159Z,92.53
2022-10-21T17:19:24.806Z,96.75
2022-10-21T17:21:51.407Z,92.85
2022-10-21T17:24:18.422Z,94.82
2022-10-21T17:26:45.597Z,94.38
2022-10-21T17:29:12.650Z,91.32
2022-10-21T17:31:41.389Z,96.38
2022-10-21T17:34:15.292Z,98.93
2022-10-21T17:36:41.916Z,93.65
2022-10-21T17:39:08.540Z,97.07
2022-10-21T17:41:35.144Z,93.88
2022-10-21T17:44:02.734Z,93.05
2022-10-21T17:46:29.377Z,98.20
2022-10-21T17:48:57.713Z,94.85
2022-10-21T17:51:25.367Z,94.63
2022-10-21T17:53:53.329Z,96.65
2022-10-21T17:56:20.659Z,94.47
2022-10-21T17:58:51.495Z,93.90
2022-10-21T18:01:18.285Z,95.63
2022-10-21T18:03:45.332Z,94.75
2022-10-21T18:06:13.456Z,94.75
2022-10-21T18:08:40.369Z,93.82
2022-10-21T18:11:09.645Z,94.55
2022-10-21T18:13:36.912Z,95.57
2022-10-21T18:16:12.574Z,93.82
2022-10-21T18:18:39.924Z,97.40
2022-10-21T18:21:13.379Z,93.50
2022-10-21T18:23:42.525Z,92.97
2022-10-21T18:26:13.539Z,96.88
2022-10-21T18:28:40.421Z,98.60
2022-10-21T18:31:07.204Z,98.20
2022-10-21T18:33:34.325Z,93.18
2022-10-21T18:36:12.170Z,99.72
2022-10-21T18:38:39.066Z,97.82
2022-10-21T18:41:23.469Z,95.10
2022-10-21T18:43:52.233Z,95.18
2022-10-21T18:46:19.747Z,93.28
2022-10-21T18:48:46.561Z,97.85
2022-10-21T18:51:19.004Z,94.50
2022-10-21T18:53:49.980Z,93.97
2022-10-21T18:56:18.634Z,100.47
2022-10-21T18:58:45.288Z,94.78
2022-10-21T19:01:14.893Z,93.97
2022-10-21T19:03:41.844Z,96.45
2022-10-21T19:06:30.434Z,91.85
2022-10-21T19:08:57.915Z,92.72
2022-10-21T19:11:24.907Z,96.82
2022-10-21T19:13:51.554Z,97.28
2022-10-21T19:16:18.163Z,94.95
2022-10-21T19:18:44.883Z,92.97
2022-10-21T19:21:12.957Z,92.35
2022-10-21T19:23:39.622Z,93.78
2022-10-21T19:26:09.000Z,92.00
2022-10-21T19:28:36.712Z,101.05
2022-10-21T19:31:04.063Z,95.10
2022-10-21T19:33:31.221Z,94.00
2022-10-21T19:36:02.716Z,95.40
2022-10-21T19:38:43.724Z,94.53
2022-10-21T19:41:14.790Z,95.50
2022-10-21T19:43:41.527Z,97.20
2022-10-21T19:46:14.311Z,92.22
2022-10-21T19:48:40.943Z,94.05
2022-10-21T19:51:15.555Z,92.30
2022-10-21T19:53:44.938Z,99.30
2022-10-21T19:56:12.933Z,91.90
2022-10-21T19:58:40.502Z,95.30
2022-10-21T20:01:11.593Z,95.50
2022-10-21T20:03:40.089Z,92.97
2022-10-21T20:08:43.827Z,93.43
2022-10-21T20:11:16.533Z,91.88
2022-10-21T20:13:43.923Z,91.28
2022-10-21T20:16:23.260Z,93.82
2022-10-21T20:18:50.510Z,92.80
2022-10-21T20:21:17.470Z,92.30
2022-10-21T20:23:44.161Z,96.07
2022-10-21T20:26:10.842Z,106.68
2022-10-21T20:28:37.740Z,94.18
2022-10-21T20:31:12.724Z,95.60
2022-10-21T20:33:45.609Z,92.63
2022-10-21T20:36:19.148Z,94.65
2022-10-21T20:38:46.775Z,94.93
2022-10-21T20:41:22.139Z,97.30
2022-10-21T20:43:50.347Z,98.07
2022-10-21T20:46:17.954Z,97.72
2022-10-21T20:48:48.181Z,97.47
2022-10-21T20:51:17.221Z,93.18
2022-10-21T20:53:55.101Z,92.43
2022-10-21T20:56:25.099Z,92.13
2022-10-21T20:58:51.713Z,97.05
2022-10-21T21:01:27.072Z,91.78
2022-10-21T21:03:56.547Z,95.13
2022-10-21T21:06:23.495Z,93.20
2022-10-21T21:09:14.653Z,92.38
2022-10-21T21:11:37.043Z,100.43
2022-10-21T21:14:04.052Z,94.93
2022-10-21T21:16:30.723Z,92.45
2022-10-21T21:19:03.075Z,92.28
2022-10-21T21:21:31.482Z,97.40
2022-10-21T21:23:58.487Z,91.78
2022-10-21T21:26:30.921Z,92.63
2022-10-21T21:28:57.830Z,98.90
2022-10-21T21:31:26.442Z,92.00
2022-10-21T21:33:53.596Z,93.57
2022-10-21T21:36:21.045Z,99.95
2022-10-21T21:38:48.419Z,91.65
2022-10-21T21:41:16.594Z,93.30
2022-10-21T21:43:48.336Z,91.60
2022-10-21T21:46:23.611Z,91.20
2022-10-21T21:48:54.179Z,92.40
2022-10-21T21:51:24.012Z,91.22
2022-10-21T21:53:50.751Z,95.40
2022-10-21T21:56:19.241Z,93.28
2022-10-21T21:58:47.405Z,97.65
2022-10-21T22:01:17.299Z,93.70
2022-10-21T22:03:44.494Z,92.22
2022-10-21T22:06:11.163Z,94.68
2022-10-21T22:08:40.385Z,96.55
2022-10-21T22:11:09.622Z,97.20
2022-10-21T22:13:37.206Z,92.03
2022-10-21T22:16:05.289Z,94.20
2022-10-21T22:18:32.141Z,92.25
2022-10-21T22:21:04.412Z,94.15
2022-10-21T22:23:31.197Z,92.70
2022-10-21T22:25:58.574Z,93.43
2022-10-21T22:28:25.900Z,91.07
2022-10-21T22:31:01.755Z,93.47
2022-10-21T22:33:29.294Z,95.97
2022-10-21T22:35:55.994Z,92.97
2022-10-21T22:38:22.812Z,90.95
2022-10-21T22:40:58.050Z,94.25
2022-10-21T22:43:26.136Z,92.65
2022-10-21T22:45:55.336Z,96.85
2022-10-21T22:48:27.978Z,90.47
2022-10-21T22:50:54.984Z,91.85
2022-10-21T22:53:21.880Z,91.45
2022-10-21T22:55:48.615Z,93.95
2022-10-21T22:58:17.393Z,92.80
2022-10-21T23:00:44.135Z,91.07
2022-10-21T23:03:10.894Z,93.68
2022-10-21T23:05:37.583Z,97.03
2022-10-21T23:08:04.422Z,94.65
2022-10-21T23:10:31.125Z,91.20
2022-10-21T23:12:58.253Z,96.32
2022-10-21T23:15:24.877Z,91.57
2022-10-21T23:17:51.542Z,102.25
2022-10-21T23:20:18.239Z,96.50
2022-10-21T23:22:44.871Z,92.78
2022-10-21T23:25:11.523Z,91.47
2022-10-21T23:27:38.129Z,94.78
2022-10-21T23:30:05.345Z,93.95
2022-10-21T23:32:32.062Z,100.13
2022-10-21T23:34:58.695Z,91.43
2022-10-21T23:37:25.381Z,94.35
2022-10-21T23:39:52.073Z,95.90
2022-10-21T23:42:18.887Z,97.43
2022-10-21T23:44:45.607Z,96.00
2022-10-21T23:47:12.268Z,92.47
2022-10-21T23:49:38.895Z,97.80
2022-10-21T23:52:06.267Z,96.00
2022-10-21T23:54:33.342Z,97.60
2022-10-21T23:57:00.025Z,99.43
2022-10-21T23:59:26.667Z,95.25
